Thunder radar more information blitzortung!


Rain radar  rain snow radar



Det er et kommunikasjonsproblem . Gå direkte til Meteoalarm sin side: www.meteoalarm.eu og sjekk væradvarsler der .

Nearby METAR Reports

   
ENZV - Stavanger
Oppdatert: Dec 4 2022 7:20 pm
Klart  
Klart  
   Vind: Sør 1.5 m/s
Vind: Sør 1.5 m/s
Temperatur: -5°C
Wind Chill: -8°C
Duggpunkt: -8°C
Luftfuktighet: 80%
Barometer: 1032 hPa
Sikt: More than 10 km
Detaljer skyer: Klart ft
ENZV 041820Z 19003KT CAVOK M05/M08 Q1032
ENCN - Kristiansand
Oppdatert: Dec 4 2022 7:20 pm
For det meste Overskyet  
For det meste Overskyet  
   Vind: NNØ 5.7 m/s
Vind: NNØ 5.7 m/s
Temperatur: 0°C
Wind Chill: -5°C
Duggpunkt: -5°C
Luftfuktighet: 69%
Barometer: 1032 hPa
Skyer: Mostly Cloudy
Sikt: More than 10 km
Detaljer skyer: For det meste Overskyet 2900 ft
ENCN 041820Z 03011KT 360V060 9999 BKN029 M00/M05 Q1032
ENBR - Bergen
Oppdatert: Dec 4 2022 7:20 pm
For det meste Overskyet  
For det meste Overskyet  
   Vind: ØSØ 1 m/s
Vind: ØSØ 1 m/s
Temperatur: 0°C
Duggpunkt: -5°C
Luftfuktighet: 69%
Barometer: 1032 hPa
Skyer: Mostly Cloudy
Sikt: More than 10 km
Detaljer skyer: For det meste Overskyet 2600 ft
ENBR 041820Z 12002KT 9999 BKN026 00/M05 Q1032 NOSIG RMK WIND 1200FT 14007KT
ENGM - Oslo
Oppdatert: Dec 4 2022 7:20 pm
For det meste Overskyet  
For det meste Overskyet  
   Vind: ØNØ 1.5 m/s
Vind: ØNØ 1.5 m/s
Temperatur: -3°C
Wind Chill: -5°C
Duggpunkt: -7°C
Luftfuktighet: 74%
Barometer: 1034 hPa
Skyer: Mostly Cloudy
Sikt: More than 10 km
Detaljer skyer: For det meste Overskyet 2000 ft
ENGM 041820Z 07003KT 360V100 9999 BKN020 M03/M07 Q1034 NOSIG
ENVA - Trondheim
Oppdatert: Dec 4 2022 7:20 pm
For det meste Overskyet  
For det meste Overskyet  
   Vind: ØSØ 3.6 m/s
Vind: ØSØ 3.6 m/s
Temperatur: -7°C
Wind Chill: -13°C
Duggpunkt: -10°C
Luftfuktighet: 79%
Barometer: 1033 hPa
Skyer: Mostly Cloudy
Sikt: More than 10 km
Detaljer skyer: For det meste Overskyet 2600 ft
ENVA 041820Z 12007KT 9999 BKN026 M07/M10 Q1033 RMK WIND 670FT 16006KT
ENTC - Tromsø
Oppdatert: Dec 4 2022 7:20 pm
For det meste Overskyet  
For det meste Overskyet  
   Vind: SSV 8.2 m/s
Vind: SSV 8.2 m/s
Temperatur: -1°C
Wind Chill: -8°C
Duggpunkt: -6°C
Luftfuktighet: 69%
Barometer: 1024 hPa
Skyer: Mostly Cloudy
Sikt: More than 10 km
Detaljer skyer: For det meste Overskyet 2400 ft
ENTC 041820Z 20016KT 9999 BKN024 M01/M06 Q1024 RMK WIND 2600FT 19007KT

Script utviklet av  Saratoga-weather.org Tilpasset for tamplaten av  Weerstation Leuven

Du finner vår vær info også på:

European Weather Network

WeatherCloud

Weather Underground

AWEKAS

HAMweather, WeatherForYou, PWS Weather

Utrustning vi bruker:

vær-station
Davis VP2

vær-programmet
Weather Display

Davis VP2

Weather Display